createdAt,value
2018-07-24T00:02:13.486Z,22.90
2018-07-24T00:04:40.830Z,22.90
2018-07-24T00:07:08.167Z,22.70
2018-07-24T00:09:35.516Z,22.60
2018-07-24T00:12:02.851Z,22.60
2018-07-24T00:14:30.234Z,22.60
2018-07-24T00:16:57.600Z,22.50
2018-07-24T00:19:24.926Z,22.50
2018-07-24T00:21:52.283Z,22.50
2018-07-24T00:24:19.637Z,22.40
2018-07-24T00:26:46.995Z,22.40
2018-07-24T00:29:14.350Z,22.40
2018-07-24T00:31:41.650Z,22.50
2018-07-24T00:34:08.976Z,22.50
2018-07-24T00:36:36.293Z,22.40
2018-07-24T00:39:05.993Z,22.30
2018-07-24T00:41:33.469Z,22.30
2018-07-24T00:44:00.806Z,22.40
2018-07-24T00:46:28.179Z,22.30
2018-07-24T00:48:55.552Z,22.40
2018-07-24T00:51:22.894Z,22.30
2018-07-24T00:56:17.468Z,22.10
2018-07-24T01:01:29.201Z,22.20
2018-07-24T01:03:56.569Z,22.20
2018-07-24T01:06:23.947Z,22.00
2018-07-24T01:08:51.262Z,22.00
2018-07-24T01:11:18.584Z,21.90
2018-07-24T01:13:45.899Z,21.80
2018-07-24T01:16:13.228Z,21.80
2018-07-24T01:18:40.610Z,21.90
2018-07-24T01:21:07.940Z,21.80
2018-07-24T01:23:35.273Z,21.70
2018-07-24T01:26:02.592Z,21.70
2018-07-24T01:28:29.950Z,21.70
2018-07-24T01:30:57.331Z,21.70
2018-07-24T01:33:24.737Z,21.70
2018-07-24T01:35:52.048Z,21.70
2018-07-24T01:38:19.365Z,21.70
2018-07-24T01:40:46.700Z,21.70
2018-07-24T01:43:14.094Z,21.80
2018-07-24T01:45:41.448Z,21.70
2018-07-24T01:48:08.764Z,21.70
2018-07-24T01:50:36.099Z,21.60
2018-07-24T01:53:03.654Z,21.60
2018-07-24T01:55:30.983Z,21.50
2018-07-24T01:57:58.336Z,21.60
2018-07-24T02:00:25.699Z,21.50
2018-07-24T02:02:53.027Z,21.60
2018-07-24T02:05:20.443Z,21.60
2018-07-24T02:07:47.763Z,21.40
2018-07-24T02:10:15.146Z,21.40
2018-07-24T02:12:42.470Z,21.50
2018-07-24T02:15:09.788Z,21.40
2018-07-24T02:17:37.131Z,21.40
2018-07-24T02:20:04.438Z,21.30
2018-07-24T02:22:31.789Z,21.20
2018-07-24T02:24:59.217Z,21.20
2018-07-24T02:27:26.565Z,21.10
2018-07-24T02:29:53.888Z,21.20
2018-07-24T02:32:21.222Z,21.30
2018-07-24T02:34:48.549Z,21.30
2018-07-24T02:37:15.936Z,21.20
2018-07-24T02:39:43.257Z,21.10
2018-07-24T02:42:10.571Z,21.10
2018-07-24T02:44:37.890Z,21.10
2018-07-24T02:47:05.214Z,21.10
2018-07-24T02:49:32.615Z,21.10
2018-07-24T02:51:59.984Z,21.00
2018-07-24T02:54:27.357Z,21.00
2018-07-24T02:56:54.687Z,20.90
2018-07-24T02:59:22.043Z,20.80
2018-07-24T03:01:49.400Z,20.80
2018-07-24T03:04:16.757Z,20.90
2018-07-24T03:06:44.060Z,20.90
2018-07-24T03:09:11.571Z,20.90
2018-07-24T03:11:38.927Z,20.80
2018-07-24T03:14:06.247Z,20.80
2018-07-24T03:16:33.565Z,20.90
2018-07-24T03:19:00.922Z,20.80
2018-07-24T03:21:28.269Z,20.90
2018-07-24T03:23:55.672Z,20.90
2018-07-24T03:26:23.008Z,20.90
2018-07-24T03:28:50.328Z,20.80
2018-07-24T03:31:17.663Z,20.90
2018-07-24T03:33:44.984Z,20.80
2018-07-24T03:36:12.309Z,20.60
2018-07-24T03:38:39.607Z,20.60
2018-07-24T03:41:06.935Z,20.60
2018-07-24T03:43:34.251Z,20.60
2018-07-24T03:46:01.600Z,20.60
2018-07-24T03:48:28.939Z,20.50
2018-07-24T03:50:56.270Z,20.60
2018-07-24T03:53:23.622Z,20.70
2018-07-24T03:55:50.947Z,20.60
2018-07-24T03:58:18.260Z,20.60
2018-07-24T04:00:45.580Z,20.50
2018-07-24T04:03:12.908Z,20.50
2018-07-24T04:05:40.235Z,20.40
2018-07-24T04:08:07.557Z,20.50
2018-07-24T04:10:34.867Z,20.40
2018-07-24T04:13:02.302Z,20.50
2018-07-24T04:15:29.603Z,20.60
2018-07-24T04:17:56.962Z,20.60
2018-07-24T04:20:24.278Z,20.60
2018-07-24T04:22:51.615Z,20.50
2018-07-24T04:25:18.943Z,20.50
2018-07-24T04:27:46.255Z,20.50
2018-07-24T04:30:13.617Z,20.50
2018-07-24T04:32:40.983Z,20.60
2018-07-24T04:35:08.326Z,20.60
2018-07-24T04:37:35.652Z,20.60
2018-07-24T04:40:03.510Z,20.60
2018-07-24T04:42:30.812Z,20.60
2018-07-24T04:44:58.181Z,20.70
2018-07-24T04:47:25.533Z,20.80
2018-07-24T04:49:52.849Z,20.90
2018-07-24T04:52:20.153Z,21.00
2018-07-24T04:54:47.483Z,21.00
2018-07-24T04:57:14.830Z,21.10
2018-07-24T04:59:42.164Z,21.10
2018-07-24T05:02:10.392Z,21.10
2018-07-24T05:04:37.775Z,21.20
2018-07-24T05:07:05.089Z,21.20
2018-07-24T05:09:32.562Z,21.30
2018-07-24T05:11:59.887Z,21.40
2018-07-24T05:14:27.270Z,21.50
2018-07-24T05:16:54.599Z,21.50
2018-07-24T05:19:21.923Z,21.50
2018-07-24T05:21:49.251Z,21.50
2018-07-24T05:24:16.590Z,21.60
2018-07-24T05:26:43.906Z,21.60
2018-07-24T05:29:11.247Z,21.70
2018-07-24T05:31:38.603Z,21.70
2018-07-24T05:34:05.942Z,21.70
2018-07-24T05:36:33.243Z,21.70
2018-07-24T05:39:00.577Z,21.80
2018-07-24T05:41:27.892Z,21.90
2018-07-24T05:43:55.234Z,22.00
2018-07-24T05:46:33.238Z,22.00
2018-07-24T05:49:00.635Z,22.10
2018-07-24T05:51:27.950Z,22.20
2018-07-24T05:53:55.303Z,22.20
2018-07-24T05:56:22.656Z,22.30
2018-07-24T05:58:49.967Z,22.40
2018-07-24T06:01:17.295Z,22.50
2018-07-24T06:03:44.640Z,22.60
2018-07-24T06:06:11.931Z,22.70
2018-07-24T06:08:39.250Z,22.80
2018-07-24T06:11:06.554Z,22.90
2018-07-24T06:13:33.895Z,23.00
2018-07-24T06:16:01.202Z,23.10
2018-07-24T06:18:28.594Z,23.10
2018-07-24T06:20:55.999Z,23.20
2018-07-24T06:23:23.316Z,23.30
2018-07-24T06:25:50.675Z,23.30
2018-07-24T06:28:18.023Z,23.40
2018-07-24T06:30:45.323Z,23.50
2018-07-24T06:33:12.667Z,23.50
2018-07-24T06:35:39.999Z,23.60
2018-07-24T06:38:07.334Z,23.60
2018-07-24T06:40:34.646Z,23.70
2018-07-24T06:43:01.999Z,23.70
2018-07-24T06:45:29.361Z,23.80
2018-07-24T06:47:56.721Z,23.90
2018-07-24T06:50:24.060Z,23.90
2018-07-24T06:52:51.683Z,24.00
2018-07-24T06:55:19.011Z,24.10
2018-07-24T06:57:46.342Z,24.20
2018-07-24T07:00:13.665Z,24.30
2018-07-24T07:02:40.968Z,24.40
2018-07-24T07:05:08.325Z,24.40
2018-07-24T07:07:35.648Z,24.40
2018-07-24T07:10:03.003Z,24.50
2018-07-24T07:12:30.327Z,24.70
2018-07-24T07:14:57.682Z,24.70
2018-07-24T07:17:25.076Z,24.70
2018-07-24T07:19:52.391Z,24.80
2018-07-24T07:22:20.005Z,24.90
2018-07-24T07:24:47.307Z,25.10
2018-07-24T07:27:14.644Z,25.10
2018-07-24T07:29:41.962Z,25.20
2018-07-24T07:32:09.274Z,25.30
2018-07-24T07:34:36.612Z,25.40
2018-07-24T07:37:03.926Z,25.50
2018-07-24T07:39:31.293Z,25.50
2018-07-24T07:41:58.678Z,25.70
2018-07-24T07:44:26.016Z,25.80
2018-07-24T07:46:53.363Z,26.00
2018-07-24T07:49:20.784Z,26.10
2018-07-24T07:51:48.115Z,26.20
2018-07-24T07:54:15.446Z,26.30
2018-07-24T07:56:42.794Z,26.30
2018-07-24T07:59:10.099Z,26.50
2018-07-24T08:01:37.416Z,26.60
2018-07-24T08:04:05.481Z,26.60
2018-07-24T08:06:32.825Z,26.70
2018-07-24T08:09:00.207Z,26.90
2018-07-24T08:11:28.231Z,27.00
2018-07-24T08:13:55.650Z,27.10
2018-07-24T08:16:23.010Z,27.10
2018-07-24T08:18:50.319Z,27.30
2018-07-24T08:21:17.662Z,27.20
2018-07-24T08:23:44.991Z,27.30
2018-07-24T08:26:12.313Z,27.40
2018-07-24T08:28:39.753Z,27.60
2018-07-24T08:31:07.056Z,27.70
2018-07-24T08:33:34.401Z,27.90
2018-07-24T08:36:01.716Z,28.00
2018-07-24T08:38:29.059Z,28.10
2018-07-24T08:40:56.403Z,28.20
2018-07-24T08:43:23.719Z,28.30
2018-07-24T08:45:51.023Z,28.40
2018-07-24T08:48:18.394Z,28.40
2018-07-24T08:50:46.495Z,28.40
2018-07-24T08:53:14.269Z,28.50
2018-07-24T08:55:41.598Z,28.50
2018-07-24T08:58:08.693Z,28.50
2018-07-24T09:00:36.030Z,28.60
2018-07-24T09:03:03.370Z,28.70
2018-07-24T09:05:30.662Z,28.80
2018-07-24T09:07:57.991Z,28.90
2018-07-24T09:10:25.362Z,29.00
2018-07-24T09:12:52.656Z,29.10
2018-07-24T09:15:19.999Z,29.20
2018-07-24T09:17:47.303Z,29.30
2018-07-24T09:20:14.643Z,29.40
2018-07-24T09:22:41.957Z,29.50
2018-07-24T09:25:09.298Z,29.60
2018-07-24T09:27:36.613Z,29.60
2018-07-24T09:30:04.059Z,29.70
2018-07-24T09:32:31.387Z,29.70
2018-07-24T09:34:58.808Z,29.70
2018-07-24T09:37:26.172Z,29.70
2018-07-24T09:39:53.518Z,29.70
2018-07-24T09:42:20.835Z,29.80
2018-07-24T09:44:48.174Z,29.90
2018-07-24T09:47:15.737Z,30.10
2018-07-24T09:52:10.391Z,30.30
2018-07-24T09:54:37.723Z,30.30
2018-07-24T09:57:05.075Z,30.30
2018-07-24T09:59:32.400Z,30.30
2018-07-24T10:01:59.781Z,30.30
2018-07-24T10:04:27.169Z,30.40
2018-07-24T10:06:54.564Z,30.50
2018-07-24T10:09:21.855Z,30.60
2018-07-24T10:14:16.510Z,30.60
2018-07-24T10:16:43.822Z,30.70
2018-07-24T10:19:11.129Z,30.70
2018-07-24T10:21:38.467Z,30.80
2018-07-24T10:24:05.794Z,30.80
2018-07-24T10:26:33.213Z,30.90
2018-07-24T10:29:00.580Z,31.00
2018-07-24T10:31:28.115Z,31.00
2018-07-24T10:33:55.579Z,30.90
2018-07-24T10:36:22.930Z,31.00
2018-07-24T10:38:50.259Z,31.00
2018-07-24T10:41:17.581Z,31.10
2018-07-24T10:43:44.933Z,31.10
2018-07-24T10:46:12.289Z,31.10
2018-07-24T10:48:39.624Z,31.30
2018-07-24T10:51:06.939Z,31.30
2018-07-24T10:53:34.284Z,31.30
2018-07-24T10:56:01.628Z,31.40
2018-07-24T10:58:28.993Z,31.40
2018-07-24T11:00:56.349Z,31.50
2018-07-24T11:03:23.643Z,31.50
2018-07-24T11:05:51.008Z,31.60
2018-07-24T11:08:18.342Z,31.50
2018-07-24T11:10:45.774Z,31.40
2018-07-24T11:13:13.139Z,31.20
2018-07-24T11:15:40.764Z,31.30
2018-07-24T11:18:08.190Z,31.20
2018-07-24T11:20:35.494Z,31.20
2018-07-24T11:23:02.918Z,31.30
2018-07-24T11:25:30.136Z,31.30
2018-07-24T11:27:57.593Z,31.30
2018-07-24T11:30:25.019Z,31.30
2018-07-24T11:32:52.362Z,31.30
2018-07-24T11:35:19.693Z,31.50
2018-07-24T11:37:47.007Z,31.70
2018-07-24T11:40:14.342Z,31.70
2018-07-24T11:42:41.739Z,31.70
2018-07-24T11:45:09.093Z,31.60
2018-07-24T11:47:36.393Z,31.60
2018-07-24T11:50:04.057Z,31.60
2018-07-24T11:52:31.520Z,31.80
2018-07-24T11:54:58.927Z,31.80
2018-07-24T11:57:26.339Z,31.90
2018-07-24T11:59:53.892Z,32.00
2018-07-24T12:02:21.207Z,32.00
2018-07-24T12:04:48.554Z,32.00
2018-07-24T12:07:15.847Z,32.00
2018-07-24T12:09:43.199Z,32.10
2018-07-24T12:12:10.528Z,31.80
2018-07-24T12:14:37.936Z,31.80
2018-07-24T12:17:05.583Z,31.80
2018-07-24T12:19:32.954Z,31.90
2018-07-24T12:22:00.275Z,32.10
2018-07-24T12:24:27.687Z,32.10
2018-07-24T12:26:55.011Z,32.10
2018-07-24T12:29:22.353Z,32.10
2018-07-24T12:31:49.719Z,32.10
2018-07-24T12:34:17.071Z,31.90
2018-07-24T12:36:44.387Z,31.80
2018-07-24T12:39:11.685Z,31.90
2018-07-24T12:44:06.362Z,31.60
2018-07-24T12:46:33.673Z,31.70
2018-07-24T12:49:00.988Z,31.90
2018-07-24T12:51:28.458Z,32.20
2018-07-24T12:53:55.958Z,32.30
2018-07-24T12:56:23.295Z,32.40
2018-07-24T12:58:50.635Z,32.50
2018-07-24T13:01:17.954Z,32.60
2018-07-24T13:03:45.270Z,32.70
2018-07-24T13:06:12.603Z,32.70
2018-07-24T13:08:39.952Z,32.80
2018-07-24T13:11:07.471Z,32.90
2018-07-24T13:13:34.652Z,32.90
2018-07-24T13:16:01.992Z,33.10
2018-07-24T13:18:29.348Z,33.00
2018-07-24T13:20:56.906Z,33.10
2018-07-24T13:23:24.246Z,33.20
2018-07-24T13:25:51.665Z,33.30
2018-07-24T13:28:19.084Z,33.30
2018-07-24T13:30:46.413Z,33.40
2018-07-24T13:33:13.731Z,33.10
2018-07-24T13:38:25.371Z,33.20
2018-07-24T13:40:52.702Z,33.30
2018-07-24T13:43:20.006Z,33.30
2018-07-24T13:45:47.309Z,33.30
2018-07-24T13:48:14.657Z,33.20
2018-07-24T13:50:41.971Z,33.10
2018-07-24T13:53:09.293Z,33.00
2018-07-24T13:55:36.598Z,33.00
2018-07-24T13:58:04.020Z,32.90
2018-07-24T14:00:31.437Z,32.90
2018-07-24T14:02:58.816Z,33.00
2018-07-24T14:05:26.236Z,33.10
2018-07-24T14:12:47.827Z,33.10
2018-07-24T14:15:15.143Z,33.10
2018-07-24T14:17:42.461Z,33.00
2018-07-24T14:20:09.769Z,32.80
2018-07-24T14:22:37.268Z,32.80
2018-07-24T14:25:04.565Z,32.90
2018-07-24T14:27:31.924Z,33.00
2018-07-24T14:29:59.830Z,33.20
2018-07-24T14:32:27.165Z,33.30
2018-07-24T14:34:54.517Z,33.30
2018-07-24T14:37:21.854Z,33.40
2018-07-24T14:39:49.162Z,33.40
2018-07-24T14:42:16.519Z,33.60
2018-07-24T14:44:43.857Z,33.80
2018-07-24T14:47:11.175Z,33.80
2018-07-24T14:49:38.562Z,33.90
2018-07-24T14:52:05.897Z,34.00
2018-07-24T14:54:33.248Z,34.10
2018-07-24T14:57:00.564Z,34.30
2018-07-24T14:59:27.937Z,34.60
2018-07-24T15:01:55.278Z,34.50
2018-07-24T15:04:22.598Z,34.50
2018-07-24T15:06:49.923Z,34.60
2018-07-24T15:09:17.283Z,34.70
2018-07-24T15:11:44.692Z,34.80
2018-07-24T15:14:12.139Z,34.90
2018-07-24T15:16:39.405Z,35.00
2018-07-24T15:19:06.766Z,35.00
2018-07-24T15:21:34.133Z,35.00
2018-07-24T15:24:01.499Z,35.10
2018-07-24T15:26:28.881Z,35.20
2018-07-24T15:28:56.251Z,35.20
2018-07-24T15:31:23.609Z,35.30
2018-07-24T15:33:51.021Z,35.20
2018-07-24T15:36:18.385Z,35.20
2018-07-24T15:38:45.687Z,35.30
2018-07-24T15:41:13.010Z,35.30
2018-07-24T15:43:40.362Z,35.30
2018-07-24T15:46:07.703Z,35.40
2018-07-24T15:48:35.032Z,35.40
2018-07-24T15:51:02.357Z,35.50
2018-07-24T15:53:29.663Z,35.60
2018-07-24T15:55:57.098Z,35.70
2018-07-24T15:58:24.507Z,35.40
2018-07-24T16:00:51.831Z,35.20
2018-07-24T16:03:19.167Z,35.30
2018-07-24T16:05:46.480Z,35.40
2018-07-24T16:08:13.797Z,35.60
2018-07-24T16:10:41.166Z,35.70
2018-07-24T16:13:08.504Z,35.80
2018-07-24T16:15:35.915Z,35.90
2018-07-24T16:18:03.139Z,36.10
2018-07-24T16:20:30.571Z,36.20
2018-07-24T16:22:58.050Z,36.30
2018-07-24T16:25:25.374Z,36.40
2018-07-24T16:27:52.730Z,36.60
2018-07-24T16:30:20.077Z,36.80
2018-07-24T16:32:47.385Z,37.00
2018-07-24T16:37:42.051Z,37.80
2018-07-24T16:40:09.721Z,38.50
2018-07-24T16:42:37.350Z,39.40
2018-07-24T16:45:04.686Z,40.00
2018-07-24T16:47:32.087Z,40.50
2018-07-24T16:49:59.454Z,41.00
2018-07-24T16:52:26.822Z,40.90
2018-07-24T16:54:54.382Z,40.50
2018-07-24T16:57:21.687Z,40.40
2018-07-24T16:59:49.033Z,40.90
2018-07-24T17:02:16.386Z,41.50
2018-07-24T17:04:43.694Z,41.80
2018-07-24T17:09:38.185Z,42.40
2018-07-24T17:12:05.891Z,42.70
2018-07-24T17:14:33.216Z,42.50
2018-07-24T17:17:00.674Z,41.80
2018-07-24T17:19:28.104Z,40.90
2018-07-24T17:21:55.470Z,40.40
2018-07-24T17:24:22.775Z,40.00
2018-07-24T17:26:50.093Z,39.40
2018-07-24T17:29:17.401Z,39.10
2018-07-24T17:31:44.748Z,39.00
2018-07-24T17:34:12.060Z,39.30
2018-07-24T17:36:39.378Z,39.60
2018-07-24T17:39:07.657Z,40.00
2018-07-24T17:41:35.237Z,40.50
2018-07-24T17:44:02.946Z,41.00
2018-07-24T17:46:30.280Z,41.30
2018-07-24T17:48:57.668Z,41.40
2018-07-24T17:51:25.025Z,41.50
2018-07-24T17:53:52.342Z,41.50
2018-07-24T17:56:19.720Z,41.30
2018-07-24T17:58:47.099Z,41.10
2018-07-24T18:01:14.425Z,40.60
2018-07-24T18:03:41.762Z,40.00
2018-07-24T18:06:09.097Z,39.30
2018-07-24T18:08:36.416Z,38.70
2018-07-24T18:11:03.770Z,38.50
2018-07-24T18:13:31.180Z,38.50
2018-07-24T18:15:59.635Z,38.30
2018-07-24T18:18:27.038Z,37.60
2018-07-24T18:20:54.347Z,37.00
2018-07-24T18:23:21.666Z,36.40
2018-07-24T18:25:53.677Z,35.70
2018-07-24T18:28:21.010Z,35.10
2018-07-24T18:30:48.342Z,34.60
2018-07-24T18:33:15.705Z,34.30
2018-07-24T18:35:43.006Z,34.10
2018-07-24T18:40:37.516Z,33.60
2018-07-24T18:43:05.138Z,33.40
2018-07-24T18:45:32.500Z,33.20
2018-07-24T18:47:59.877Z,33.00
2018-07-24T18:50:27.301Z,32.80
2018-07-24T18:52:54.654Z,32.70
2018-07-24T18:55:21.966Z,32.60
2018-07-24T18:57:49.307Z,32.40
2018-07-24T19:00:16.671Z,32.40
2018-07-24T19:02:43.979Z,32.30
2018-07-24T19:05:11.365Z,32.20
2018-07-24T19:07:38.603Z,32.10
2018-07-24T19:12:33.109Z,32.00
2018-07-24T19:15:00.470Z,31.90
2018-07-24T19:17:27.833Z,31.80
2018-07-24T19:19:55.260Z,31.70
2018-07-24T19:22:22.557Z,31.70
2018-07-24T19:24:49.887Z,31.50
2018-07-24T19:27:17.165Z,31.40
2018-07-24T19:29:44.490Z,31.40
2018-07-24T19:32:11.799Z,31.30
2018-07-24T19:34:39.159Z,31.10
2018-07-24T19:37:06.557Z,31.10
2018-07-24T19:39:33.935Z,31.10
2018-07-24T19:42:01.293Z,31.00
2018-07-24T19:44:28.627Z,30.90
2018-07-24T19:46:55.987Z,30.70
2018-07-24T19:49:23.589Z,30.60
2018-07-24T19:51:50.914Z,30.50
2018-07-24T19:54:18.216Z,30.30
2018-07-24T19:56:45.577Z,30.20
2018-07-24T19:59:12.925Z,30.10
2018-07-24T20:01:40.229Z,29.80
2018-07-24T20:04:07.642Z,29.80
2018-07-24T20:06:34.951Z,29.70
2018-07-24T20:11:29.588Z,29.50
2018-07-24T20:13:56.970Z,29.40
2018-07-24T20:16:24.292Z,29.20
2018-07-24T20:18:51.611Z,29.10
2018-07-24T20:21:18.947Z,29.00
2018-07-24T20:23:46.311Z,29.00
2018-07-24T20:26:13.899Z,28.90
2018-07-24T20:28:41.356Z,28.90
2018-07-24T20:31:08.653Z,28.80
2018-07-24T20:33:35.971Z,28.70
2018-07-24T20:36:03.378Z,28.70
2018-07-24T20:38:30.796Z,28.60
2018-07-24T20:40:58.123Z,28.50
2018-07-24T20:43:25.526Z,28.40
2018-07-24T20:45:52.879Z,28.30
2018-07-24T20:48:20.197Z,28.30
2018-07-24T20:50:47.555Z,28.30
2018-07-24T20:53:14.859Z,28.20
2018-07-24T20:55:42.165Z,28.00
2018-07-24T20:58:09.483Z,28.00
2018-07-24T21:00:36.788Z,28.00
2018-07-24T21:03:04.112Z,27.80
2018-07-24T21:05:31.457Z,27.80
2018-07-24T21:07:58.975Z,27.80
2018-07-24T21:10:26.424Z,27.60
2018-07-24T21:12:53.819Z,27.40
2018-07-24T21:15:21.144Z,27.40
2018-07-24T21:17:48.515Z,27.40
2018-07-24T21:20:15.847Z,27.40
2018-07-24T21:22:43.593Z,27.40
2018-07-24T21:25:10.881Z,27.40
2018-07-24T21:27:38.205Z,27.50
2018-07-24T21:30:05.911Z,27.50
2018-07-24T21:32:33.238Z,27.50
2018-07-24T21:35:00.592Z,27.40
2018-07-24T21:37:27.943Z,27.40
2018-07-24T21:39:55.301Z,27.30
2018-07-24T21:42:22.702Z,27.30
2018-07-24T21:44:50.047Z,27.10
2018-07-24T21:47:17.353Z,27.00
2018-07-24T21:49:44.700Z,27.00
2018-07-24T21:52:12.012Z,27.00
2018-07-24T21:54:39.396Z,26.90
2018-07-24T21:57:06.649Z,27.00
2018-07-24T21:59:34.061Z,27.00
2018-07-24T22:02:01.520Z,26.90
2018-07-24T22:04:28.897Z,26.90
2018-07-24T22:06:56.272Z,26.80
2018-07-24T22:09:23.575Z,26.70
2018-07-24T22:11:50.911Z,26.70
2018-07-24T22:14:18.293Z,26.70
2018-07-24T22:16:45.577Z,26.70
2018-07-24T22:19:12.945Z,26.60
2018-07-24T22:21:40.214Z,26.50
2018-07-24T22:24:07.523Z,26.50
2018-07-24T22:26:35.219Z,26.50
2018-07-24T22:29:02.585Z,26.40
2018-07-24T22:31:30.042Z,26.30
2018-07-24T22:33:57.778Z,26.30
2018-07-24T22:36:26.231Z,26.30
2018-07-24T22:38:53.703Z,26.20
2018-07-24T22:41:21.059Z,26.10
2018-07-24T22:43:48.471Z,26.00
2018-07-24T22:46:15.788Z,25.90
2018-07-24T22:48:43.111Z,25.80
2018-07-24T22:51:10.426Z,25.80
2018-07-24T22:53:37.749Z,25.70
2018-07-24T22:56:05.086Z,25.70
2018-07-24T22:58:32.397Z,25.60
2018-07-24T23:00:59.770Z,25.60
2018-07-24T23:03:27.115Z,25.70
2018-07-24T23:05:54.457Z,25.70
2018-07-24T23:08:21.757Z,25.70
2018-07-24T23:10:49.122Z,25.60
2018-07-24T23:13:16.462Z,25.50
2018-07-24T23:15:43.789Z,25.50
2018-07-24T23:18:11.105Z,25.40
2018-07-24T23:20:38.385Z,25.40
2018-07-24T23:23:05.882Z,25.40
2018-07-24T23:25:33.221Z,25.30
2018-07-24T23:28:00.556Z,25.20
2018-07-24T23:30:27.877Z,25.30
2018-07-24T23:32:55.235Z,25.20
2018-07-24T23:35:22.534Z,25.20
2018-07-24T23:37:49.845Z,25.20
2018-07-24T23:40:17.201Z,25.20
2018-07-24T23:42:44.501Z,25.10
2018-07-24T23:45:11.807Z,25.10
2018-07-24T23:47:39.146Z,25.10
2018-07-24T23:50:06.486Z,25.10
2018-07-24T23:52:33.809Z,25.10
2018-07-24T23:55:01.151Z,25.00
2018-07-24T23:57:28.852Z,25.00
2018-07-24T23:59:56.206Z,24.90
